Time;durP1;ratioP1;P1;durP2;ratioP2;P2;SDS_P1;SDS_P2;PMS_P1;PMS_P2;Temp;Humidity;BMP_temperature;BMP_pressure;BME280_temperature;BME280_humidity;BME280_pressure;Samples;Min_cycle;Max_cycle;Signal;HPM_P1;HPM_P2
2021/12/11 00:00:34;;;;;;;27.17;15.33;;;7.60;58.00;;;;;;5062992;28;20949;-87
2021/12/11 00:03:07;;;;;;;28.73;17.40;;;7.60;58.30;;;;;;5063051;28;20537;-86
2021/12/11 00:05:35;;;;;;;29.30;15.73;;;7.70;58.30;;;;;;5068249;28;20462;-87
2021/12/11 00:08:04;;;;;;;28.47;16.63;;;7.70;58.10;;;;;;5082915;28;20479;-87
2021/12/11 00:10:35;;;;;;;28.57;16.47;;;7.80;58.00;;;;;;5065290;28;20451;-87
2021/12/11 00:13:07;;;;;;;35.90;17.33;;;7.80;58.10;;;;;;5064668;28;20464;-87
2021/12/11 00:15:38;;;;;;;30.70;16.80;;;7.80;58.10;;;;;;5064079;28;20484;-85
2021/12/11 00:18:06;;;;;;;32.67;16.47;;;7.80;58.00;;;;;;5033756;28;20463;-87
2021/12/11 00:20:37;;;;;;;34.87;16.57;;;7.80;58.00;;;;;;5060894;28;20995;-87
2021/12/11 00:23:04;;;;;;;27.13;14.73;;;7.90;58.00;;;;;;5058280;28;20461;-87
2021/12/11 00:25:33;;;;;;;45.33;16.63;;;7.80;58.00;;;;;;5052147;28;20452;-87
2021/12/11 00:28:04;;;;;;;31.27;16.17;;;7.80;58.00;;;;;;5063751;28;20533;-87
2021/12/11 00:30:35;;;;;;;29.83;17.50;;;7.80;58.10;;;;;;5057864;28;20559;-85
2021/12/11 00:33:06;;;;;;;33.33;17.30;;;7.80;58.10;;;;;;5081745;28;20455;-85
2021/12/11 00:35:34;;;;;;;30.57;15.90;;;7.80;58.10;;;;;;5039107;28;21076;-86
2021/12/11 00:38:06;;;;;;;26.40;14.90;;;7.90;58.10;;;;;;5044243;28;20491;-86
2021/12/11 00:40:36;;;;;;;43.27;18.97;;;7.90;57.90;;;;;;5068670;28;20457;-86
2021/12/11 00:43:06;;;;;;;53.80;24.90;;;7.90;57.90;;;;;;5069290;28;20451;-86
2021/12/11 00:45:38;;;;;;;56.83;25.77;;;7.90;57.80;;;;;;5078210;28;20920;-86
2021/12/11 00:48:08;;;;;;;52.83;23.00;;;7.90;57.70;;;;;;5034666;28;20476;-86
2021/12/11 00:50:38;;;;;;;55.37;22.80;;;7.90;57.80;;;;;;5084115;28;20447;-86
2021/12/11 00:53:12;;;;;;;55.03;24.97;;;7.90;57.80;;;;;;5084586;28;20960;-86
2021/12/11 00:55:43;;;;;;;45.73;19.33;;;8.00;58.00;;;;;;5084857;28;20441;-86
2021/12/11 00:58:13;;;;;;;37.73;18.13;;;7.90;57.70;;;;;;5083454;28;21147;-86
2021/12/11 01:00:44;;;;;;;33.23;17.03;;;8.00;57.70;;;;;;5037886;28;21883;-86
2021/12/11 01:03:14;;;;;;;31.30;15.53;;;8.00;57.60;;;;;;5069526;28;20451;-87
2021/12/11 01:05:43;;;;;;;28.60;15.20;;;8.00;57.50;;;;;;5077781;28;20464;-87
2021/12/11 01:08:22;;;;;;;24.63;14.60;;;8.00;57.50;;;;;;5063712;28;20480;-87
2021/12/11 01:10:54;;;;;;;25.53;13.10;;;8.00;57.50;;;;;;5066944;28;20497;-86
2021/12/11 01:13:25;;;;;;;26.20;13.53;;;8.00;57.40;;;;;;5055016;28;20447;-87
2021/12/11 01:16:00;;;;;;;23.07;13.40;;;8.00;57.40;;;;;;5070280;28;20444;-86
2021/12/11 01:18:35;;;;;;;26.97;12.00;;;7.90;57.60;;;;;;5067014;28;20474;-87
2021/12/11 01:21:24;;;;;;;23.63;12.63;;;7.80;57.90;;;;;;5063445;28;20898;-86
2021/12/11 01:24:09;;;;;;;22.93;12.97;;;7.80;58.20;;;;;;5069265;28;20456;-86
2021/12/11 01:26:42;;;;;;;26.93;14.00;;;7.90;58.20;;;;;;5055811;28;20458;-86
2021/12/11 01:29:10;;;;;;;24.93;13.83;;;7.90;58.10;;;;;;5063914;28;20829;-86
2021/12/11 01:31:37;;;;;;;26.63;14.40;;;8.00;57.80;;;;;;5052144;28;20444;-86
2021/12/11 01:34:05;;;;;;;26.90;15.90;;;8.00;57.80;;;;;;5056135;28;20455;-87
2021/12/11 01:36:33;;;;;;;30.97;15.87;;;8.00;57.70;;;;;;5081513;28;21163;-86
2021/12/11 01:39:04;;;;;;;28.10;14.50;;;8.00;57.70;;;;;;5064128;28;20480;-86
2021/12/11 01:41:32;;;;;;;26.27;15.07;;;7.90;57.70;;;;;;5061916;28;20476;-87
2021/12/11 01:44:05;;;;;;;25.17;15.63;;;7.70;58.20;;;;;;5061199;28;20463;-86
2021/12/11 01:46:32;;;;;;;28.93;15.97;;;7.80;58.20;;;;;;5084379;28;21003;-85
2021/12/11 01:49:05;;;;;;;31.97;15.20;;;7.80;58.30;;;;;;5048789;28;20826;-87
2021/12/11 01:51:37;;;;;;;33.47;16.07;;;7.80;58.30;;;;;;5064379;28;20970;-86
2021/12/11 01:54:13;;;;;;;23.17;13.50;;;7.70;58.40;;;;;;5048502;28;20455;-87
2021/12/11 01:56:43;;;;;;;29.40;14.90;;;7.70;58.50;;;;;;5063873;28;21095;-87
2021/12/11 01:59:15;;;;;;;29.60;15.73;;;7.80;58.50;;;;;;5049589;28;20471;-86
2021/12/11 02:01:48;;;;;;;24.67;13.77;;;7.90;58.40;;;;;;5066779;28;21044;-86
2021/12/11 02:04:18;;;;;;;23.50;13.43;;;7.90;58.30;;;;;;5059452;28;20809;-86
2021/12/11 02:06:47;;;;;;;25.93;14.07;;;8.00;58.40;;;;;;5074114;28;20791;-87
2021/12/11 02:09:19;;;;;;;28.23;12.93;;;7.90;58.20;;;;;;5066396;28;20476;-87
2021/12/11 02:11:48;;;;;;;20.23;10.43;;;7.70;58.30;;;;;;5043487;28;20457;-86
2021/12/11 02:14:22;;;;;;;21.03;11.17;;;7.60;58.70;;;;;;5056258;28;20449;-88
2021/12/11 02:16:51;;;;;;;22.53;10.93;;;7.40;59.30;;;;;;5064081;28;20451;-87
2021/12/11 02:19:22;;;;;;;22.20;10.67;;;7.10;59.90;;;;;;5050764;28;20503;-87
2021/12/11 02:21:56;;;;;;;32.10;11.60;;;7.00;60.70;;;;;;5054260;28;20483;-86
2021/12/11 02:24:25;;;;;;;16.90;9.07;;;7.00;60.60;;;;;;5077305;28;20452;-86
2021/12/11 02:26:55;;;;;;;22.87;11.00;;;7.00;60.70;;;;;;5076631;28;20440;-86
2021/12/11 02:29:25;;;;;;;22.03;10.37;;;6.90;61.10;;;;;;5068995;28;20467;-86
2021/12/11 02:31:56;;;;;;;25.57;10.43;;;6.90;61.00;;;;;;5064284;28;20455;-86
2021/12/11 02:34:28;;;;;;;27.30;11.33;;;7.00;60.90;;;;;;5066881;28;20451;-86
2021/12/11 02:37:04;;;;;;;23.20;10.80;;;7.00;60.80;;;;;;5044197;28;20464;-87
2021/12/11 02:39:34;;;;;;;22.43;9.70;;;7.10;61.10;;;;;;5051353;28;20493;-86
2021/12/11 02:42:09;;;;;;;24.57;10.50;;;7.00;60.90;;;;;;5023530;28;20461;-87
2021/12/11 02:44:40;;;;;;;24.20;11.17;;;7.10;61.00;;;;;;5059480;28;20440;-85
2021/12/11 02:47:11;;;;;;;19.73;10.53;;;7.20;60.70;;;;;;5065112;28;20470;-87
2021/12/11 02:49:42;;;;;;;21.17;10.40;;;7.20;60.60;;;;;;5067753;28;20555;-86
2021/12/11 02:52:14;;;;;;;36.70;17.43;;;7.20;61.20;;;;;;5058781;28;20475;-86
2021/12/11 02:54:45;;;;;;;48.03;19.80;;;7.30;60.20;;;;;;5084310;28;20455;-86
2021/12/11 02:57:17;;;;;;;76.70;30.53;;;7.20;60.50;;;;;;5081938;28;20935;-86
2021/12/11 02:59:45;;;;;;;80.57;30.33;;;7.20;60.70;;;;;;5049813;28;20468;-87
2021/12/11 03:06:22;;;;;;;32.50;14.53;;;7.10;60.80;;;;;;5080055;28;20444;-86
2021/12/11 03:08:52;;;;;;;20.63;11.57;;;7.10;61.10;;;;;;5086992;28;20478;-86
2021/12/11 03:11:22;;;;;;;25.33;13.23;;;6.90;61.70;;;;;;5050870;28;20829;-86
2021/12/11 03:13:51;;;;;;;37.47;15.80;;;7.00;61.90;;;;;;5061004;28;20459;-87
2021/12/11 03:16:19;;;;;;;45.33;20.20;;;7.00;62.20;;;;;;5052962;28;20865;-86
2021/12/11 03:18:47;;;;;;;62.37;26.80;;;7.00;61.50;;;;;;5077532;28;20839;-86
2021/12/11 03:21:15;;;;;;;30.00;13.43;;;7.00;61.50;;;;;;5084111;28;20871;-87
2021/12/11 03:23:42;;;;;;;38.60;14.67;;;7.10;61.30;;;;;;5065825;28;21029;-86
2021/12/11 03:26:11;;;;;;;30.30;13.90;;;7.10;61.20;;;;;;5066806;28;21070;-86
2021/12/11 03:28:38;;;;;;;28.93;13.80;;;7.00;61.60;;;;;;5077614;28;20483;-86
2021/12/11 03:31:07;;;;;;;27.83;12.70;;;7.00;62.70;;;;;;5050511;28;20447;-87
2021/12/11 03:33:39;;;;;;;25.73;12.87;;;6.80;62.40;;;;;;5084899;28;20455;-86
2021/12/11 03:36:09;;;;;;;29.63;12.77;;;6.90;62.30;;;;;;5087433;28;20459;-87
2021/12/11 03:38:37;;;;;;;31.10;15.33;;;7.00;62.30;;;;;;5051307;28;20475;-86
2021/12/11 03:41:05;;;;;;;30.50;14.10;;;7.10;62.80;;;;;;5050306;28;20449;-87
2021/12/11 03:43:34;;;;;;;25.30;11.77;;;7.00;61.80;;;;;;5081081;28;20452;-86
2021/12/11 03:46:07;;;;;;;33.43;13.77;;;7.10;61.70;;;;;;5042517;28;20460;-86
2021/12/11 03:48:45;;;;;;;36.27;16.57;;;7.10;61.80;;;;;;5082551;28;20991;-86
2021/12/11 03:51:16;;;;;;;38.27;16.20;;;7.10;61.70;;;;;;5078405;28;20456;-87
2021/12/11 03:53:43;;;;;;;44.63;14.50;;;7.00;61.90;;;;;;5049676;28;20452;-87
2021/12/11 03:56:13;;;;;;;39.80;17.33;;;7.00;61.70;;;;;;5060131;28;20456;-86
2021/12/11 03:58:48;;;;;;;35.40;16.63;;;7.10;61.80;;;;;;5053532;28;20467;-86
2021/12/11 04:01:18;;;;;;;27.83;13.53;;;7.10;61.60;;;;;;5056303;28;20547;-86
2021/12/11 04:03:48;;;;;;;22.17;10.53;;;7.10;61.70;;;;;;5082105;28;20447;-86
2021/12/11 04:06:16;;;;;;;27.37;13.27;;;7.00;62.70;;;;;;5065928;28;20453;-87
2021/12/11 04:08:45;;;;;;;37.90;16.30;;;7.10;61.80;;;;;;5066181;28;20480;-87
2021/12/11 04:11:17;;;;;;;48.83;18.40;;;7.20;61.80;;;;;;5071885;28;20998;-86
2021/12/11 04:13:47;;;;;;;64.17;25.37;;;7.10;61.50;;;;;;5069878;28;20447;-86
2021/12/11 04:16:16;;;;;;;93.63;30.37;;;7.10;61.50;;;;;;5060528;28;20448;-86
2021/12/11 04:18:44;;;;;;;41.73;16.70;;;7.10;61.40;;;;;;5045090;28;20467;-87
2021/12/11 04:21:11;;;;;;;84.00;26.67;;;7.20;61.30;;;;;;5065122;28;20817;-86
2021/12/11 04:23:39;;;;;;;97.67;30.90;;;7.30;61.20;;;;;;5076993;28;20506;-84
2021/12/11 04:26:06;;;;;;;71.27;29.27;;;7.20;61.10;;;;;;5047364;28;20796;-86
2021/12/11 04:28:36;;;;;;;37.30;19.00;;;7.30;61.20;;;;;;5083730;28;20630;-86
2021/12/11 04:31:10;;;;;;;30.30;15.83;;;7.40;61.70;;;;;;5060851;28;20448;-86
2021/12/11 04:33:43;;;;;;;32.77;13.00;;;7.40;60.40;;;;;;5062365;28;20491;-88
2021/12/11 04:36:14;;;;;;;29.47;12.40;;;7.50;60.50;;;;;;5060582;28;20480;-87
2021/12/11 04:38:43;;;;;;;76.50;30.30;;;7.40;60.80;;;;;;5049399;28;20478;-86
2021/12/11 04:41:14;;;;;;;71.33;27.50;;;7.30;60.60;;;;;;5085962;28;20440;-86
2021/12/11 04:43:41;;;;;;;30.53;13.03;;;7.20;60.90;;;;;;5035449;28;20503;-86
2021/12/11 04:46:12;;;;;;;95.93;34.30;;;7.10;61.30;;;;;;5082763;28;20464;-87
2021/12/11 04:48:51;;;;;;;105.73;37.20;;;7.10;61.40;;;;;;5051350;28;20467;-86
2021/12/11 04:51:24;;;;;;;29.37;12.07;;;7.20;61.70;;;;;;5063236;28;20448;-86
2021/12/11 04:54:01;;;;;;;32.30;16.07;;;7.20;61.10;;;;;;5086477;28;20867;-86
2021/12/11 04:59:30;;;;;;;25.87;13.67;;;7.30;61.30;;;;;;5075810;28;21068;-86
2021/12/11 05:02:14;;;;;;;28.90;13.43;;;7.40;61.00;;;;;;5078501;28;20471;-87
2021/12/11 05:04:56;;;;;;;29.17;14.67;;;7.30;61.10;;;;;;5072592;28;20455;-87
2021/12/11 05:07:34;;;;;;;26.40;13.30;;;7.40;61.00;;;;;;5046824;28;20448;-84
2021/12/11 05:10:12;;;;;;;29.90;12.97;;;7.40;60.80;;;;;;5052535;28;20531;-87
2021/12/11 05:12:39;;;;;;;31.73;15.73;;;7.30;61.20;;;;;;5047964;28;20965;-86
2021/12/11 05:15:11;;;;;;;32.60;17.30;;;7.30;61.10;;;;;;5053506;28;21063;-87
2021/12/11 05:17:39;;;;;;;33.63;15.07;;;7.30;61.40;;;;;;5034931;28;20547;-86
2021/12/11 05:20:15;;;;;;;34.67;12.97;;;7.30;61.10;;;;;;5066665;28;21078;-87
2021/12/11 05:22:42;;;;;;;38.93;16.83;;;7.30;61.40;;;;;;5079550;28;20485;-86
2021/12/11 05:25:11;;;;;;;30.43;13.47;;;7.30;61.30;;;;;;5077029;28;20468;-85
2021/12/11 05:27:39;;;;;;;30.63;14.63;;;7.30;60.90;;;;;;5050572;28;20445;-86
2021/12/11 05:30:10;;;;;;;29.23;13.07;;;7.30;61.10;;;;;;5061536;28;20455;-86
2021/12/11 05:32:38;;;;;;;31.80;13.30;;;7.40;61.00;;;;;;5041557;28;20459;-87
2021/12/11 05:35:08;;;;;;;27.13;13.10;;;7.40;60.70;;;;;;5049027;28;20436;-88
2021/12/11 05:37:35;;;;;;;25.20;12.17;;;7.40;61.00;;;;;;5056554;28;20555;-87
2021/12/11 05:40:05;;;;;;;35.03;15.23;;;7.40;60.80;;;;;;5078613;28;21000;-86
2021/12/11 05:42:32;;;;;;;32.10;13.90;;;7.40;61.10;;;;;;5052536;28;21029;-86
2021/12/11 05:45:00;;;;;;;24.70;11.80;;;7.40;61.00;;;;;;5077181;28;20452;-86
2021/12/11 05:47:27;;;;;;;28.20;12.80;;;7.30;61.20;;;;;;5049992;28;20544;-86
2021/12/11 05:49:57;;;;;;;33.93;16.40;;;7.20;61.30;;;;;;5046061;28;20607;-87
2021/12/11 05:52:26;;;;;;;35.90;16.23;;;7.20;61.60;;;;;;5063541;28;20949;-86
2021/12/11 05:54:53;;;;;;;26.60;13.53;;;7.30;61.70;;;;;;5053675;28;20549;-86
2021/12/11 05:57:21;;;;;;;36.93;15.73;;;7.20;61.60;;;;;;5049080;28;20965;-86
2021/12/11 05:59:50;;;;;;;26.27;13.73;;;7.20;61.70;;;;;;5066120;28;20463;-87
2021/12/11 06:02:21;;;;;;;28.77;14.97;;;7.20;61.70;;;;;;5044186;28;20547;-86
2021/12/11 06:04:55;;;;;;;32.80;15.00;;;7.20;61.50;;;;;;5042923;28;20456;-86
2021/12/11 06:07:27;;;;;;;40.43;16.43;;;7.30;61.30;;;;;;5084522;28;20549;-86
2021/12/11 06:09:59;;;;;;;24.53;13.40;;;7.20;61.40;;;;;;5047974;28;20541;-87
2021/12/11 06:12:28;;;;;;;35.53;15.80;;;6.90;62.00;;;;;;5062809;28;20963;-86
2021/12/11 06:14:55;;;;;;;40.47;15.00;;;6.90;62.60;;;;;;5061985;28;20959;-88
2021/12/11 06:17:25;;;;;;;33.20;16.87;;;6.90;62.60;;;;;;5060363;28;20444;-86
2021/12/11 06:19:53;;;;;;;26.73;14.07;;;7.10;62.40;;;;;;5050752;28;20463;-86
2021/12/11 06:22:22;;;;;;;36.10;14.80;;;7.10;61.90;;;;;;5067822;28;20476;-85
2021/12/11 06:24:51;;;;;;;34.17;16.00;;;7.10;61.90;;;;;;5075797;28;21231;-87
2021/12/11 06:27:18;;;;;;;29.00;13.83;;;7.20;61.60;;;;;;5050669;28;20441;-86
2021/12/11 06:29:45;;;;;;;26.77;14.10;;;7.10;61.40;;;;;;5073048;28;20808;-86
2021/12/11 06:32:12;;;;;;;35.67;15.90;;;7.00;61.60;;;;;;5080439;28;20463;-86
2021/12/11 06:34:39;;;;;;;24.47;13.77;;;7.10;61.50;;;;;;5071154;28;20542;-86
2021/12/11 06:37:08;;;;;;;30.67;16.27;;;7.20;61.70;;;;;;5050520;28;20448;-86
2021/12/11 06:39:36;;;;;;;36.90;16.90;;;7.30;61.30;;;;;;5077841;28;20562;-87
2021/12/11 06:42:09;;;;;;;31.67;16.20;;;7.40;60.80;;;;;;5060390;28;20441;-87
2021/12/11 06:44:36;;;;;;;31.27;13.80;;;7.30;60.40;;;;;;5049466;28;20464;-87
2021/12/11 06:47:09;;;;;;;30.30;16.00;;;7.30;60.80;;;;;;5053551;28;20448;-85
2021/12/11 06:49:38;;;;;;;33.97;15.83;;;7.40;60.80;;;;;;5048800;28;20551;-87
2021/12/11 06:52:10;;;;;;;35.37;17.10;;;7.40;60.40;;;;;;5064055;28;20455;-86
2021/12/11 06:54:37;;;;;;;31.30;16.03;;;7.50;60.20;;;;;;5086112;28;20451;-85
2021/12/11 06:57:06;;;;;;;29.77;15.43;;;7.60;60.10;;;;;;5059219;28;20471;-86
2021/12/11 06:59:34;;;;;;;29.17;15.30;;;7.50;59.70;;;;;;5077830;28;20887;-86
2021/12/11 07:02:01;;;;;;;32.33;14.70;;;7.30;60.30;;;;;;5080573;28;20483;-86
2021/12/11 07:04:28;;;;;;;32.43;15.17;;;7.30;60.50;;;;;;5080715;28;20451;-86
2021/12/11 07:06:56;;;;;;;31.20;13.77;;;7.30;60.70;;;;;;5081334;28;20471;-86
2021/12/11 07:09:24;;;;;;;26.77;13.07;;;7.30;60.60;;;;;;5079576;28;20468;-87
2021/12/11 07:11:52;;;;;;;26.70;13.30;;;7.40;60.50;;;;;;5083101;28;20451;-87
2021/12/11 07:14:23;;;;;;;26.63;14.47;;;7.40;60.20;;;;;;5033193;28;20436;-87
2021/12/11 07:16:51;;;;;;;31.27;16.83;;;7.30;60.40;;;;;;5063217;28;20468;-86
2021/12/11 07:19:18;;;;;;;37.10;16.37;;;7.20;60.80;;;;;;5081677;28;20468;-86
2021/12/11 07:21:46;;;;;;;33.57;15.00;;;7.30;60.90;;;;;;5068297;28;20539;-86
2021/12/11 07:24:15;;;;;;;33.50;15.27;;;7.20;60.90;;;;;;5060742;28;20563;-86
2021/12/11 07:26:42;;;;;;;42.57;19.70;;;7.30;60.90;;;;;;5039241;28;20539;-86
2021/12/11 07:29:15;;;;;;;25.63;14.30;;;7.40;60.50;;;;;;5067096;28;21116;-87
2021/12/11 07:31:46;;;;;;;27.37;13.80;;;7.50;59.90;;;;;;5051967;28;20465;-87
2021/12/11 07:34:15;;;;;;;29.50;13.80;;;7.50;59.90;;;;;;5061664;28;20968;-87
2021/12/11 07:36:43;;;;;;;23.50;12.73;;;7.60;59.70;;;;;;5080537;28;20459;-86
2021/12/11 07:39:13;;;;;;;24.83;14.60;;;7.70;59.70;;;;;;5054724;28;20464;-86
2021/12/11 07:41:41;;;;;;;26.70;13.10;;;7.60;59.40;;;;;;5082403;28;20470;-85
2021/12/11 07:44:08;;;;;;;25.97;13.27;;;7.60;59.70;;;;;;5057322;28;20993;-86
2021/12/11 07:46:36;;;;;;;28.20;12.37;;;7.60;59.60;;;;;;5045969;28;20437;-86
2021/12/11 07:49:05;;;;;;;25.90;12.80;;;7.70;59.60;;;;;;5049281;28;20471;-86
2021/12/11 07:51:35;;;;;;;27.53;13.97;;;7.40;59.70;;;;;;5068399;28;20448;-86
2021/12/11 07:54:03;;;;;;;34.50;15.37;;;7.30;60.10;;;;;;5037695;28;20547;-87
2021/12/11 07:56:31;;;;;;;31.60;17.10;;;7.30;60.60;;;;;;5053898;28;20456;-86
2021/12/11 07:59:03;;;;;;;31.30;15.90;;;7.50;60.50;;;;;;5048016;28;20474;-86
2021/12/11 08:01:32;;;;;;;29.20;14.67;;;7.70;60.20;;;;;;5063284;28;20479;-85
2021/12/11 08:04:00;;;;;;;26.73;16.03;;;7.80;59.90;;;;;;5050564;28;20472;-86
2021/12/11 08:06:29;;;;;;;24.67;14.23;;;8.00;59.70;;;;;;5084014;28;20484;-86
2021/12/11 08:08:57;;;;;;;26.70;12.67;;;8.10;59.40;;;;;;5088118;28;20475;-87
2021/12/11 08:11:28;;;;;;;26.80;13.70;;;8.10;59.10;;;;;;5063796;28;20479;-87
2021/12/11 08:13:56;;;;;;;30.07;15.97;;;8.20;58.90;;;;;;5086932;28;20455;-86
2021/12/11 08:16:32;;;;;;;25.60;13.20;;;8.00;58.40;;;;;;5082962;28;20451;-87
2021/12/11 08:18:59;;;;;;;23.97;14.43;;;8.00;58.90;;;;;;5048645;28;20506;-86
2021/12/11 08:21:28;;;;;;;25.33;13.60;;;8.00;59.00;;;;;;5064455;28;20858;-86
2021/12/11 08:23:56;;;;;;;29.30;15.70;;;8.10;59.00;;;;;;5068947;28;21186;-86
2021/12/11 08:26:25;;;;;;;28.47;14.77;;;8.10;59.10;;;;;;5065135;28;20452;-86
2021/12/11 08:28:52;;;;;;;28.07;14.10;;;8.10;58.90;;;;;;5066701;28;20490;-89
2021/12/11 08:31:21;;;;;;;25.57;13.53;;;8.10;58.80;;;;;;5078428;28;20531;-86
2021/12/11 08:33:49;;;;;;;28.67;15.13;;;8.00;58.70;;;;;;5071874;28;20443;-85
2021/12/11 08:36:16;;;;;;;23.60;13.93;;;8.00;59.30;;;;;;5081861;28;20483;-88
2021/12/11 08:38:45;;;;;;;27.47;13.10;;;8.00;59.10;;;;;;5068802;28;21009;-87
2021/12/11 08:41:14;;;;;;;26.00;13.90;;;8.00;59.20;;;;;;5047803;28;20453;-86
2021/12/11 08:43:43;;;;;;;26.87;13.30;;;8.10;59.30;;;;;;5064200;28;20459;-86
2021/12/11 08:46:23;;;;;;;27.27;14.63;;;7.90;59.30;;;;;;5072071;28;20452;-89
2021/12/11 08:48:50;;;;;;;30.73;14.33;;;7.80;59.90;;;;;;5066388;28;20998;-87
2021/12/11 08:51:21;;;;;;;24.03;13.13;;;7.70;60.20;;;;;;5066175;28;20451;-86
2021/12/11 08:53:50;;;;;;;20.93;13.80;;;7.70;60.00;;;;;;5061668;28;20487;-86
2021/12/11 08:56:18;;;;;;;25.43;14.83;;;7.70;60.20;;;;;;5063526;28;20867;-87
2021/12/11 08:58:48;;;;;;;27.90;14.77;;;7.80;60.40;;;;;;5028975;28;20483;-87
2021/12/11 09:01:19;;;;;;;29.00;14.80;;;7.90;60.10;;;;;;5047322;28;20479;-86
2021/12/11 09:03:53;;;;;;;22.53;13.17;;;8.00;60.00;;;;;;5064550;28;20481;-86
2021/12/11 09:06:27;;;;;;;26.93;14.20;;;8.10;59.70;;;;;;5081750;28;20452;-87
2021/12/11 09:08:58;;;;;;;31.57;14.13;;;8.10;59.60;;;;;;5059177;28;20502;-87
2021/12/11 09:11:28;;;;;;;22.63;11.90;;;8.20;59.60;;;;;;5074834;28;20456;-86
2021/12/11 09:14:00;;;;;;;30.33;14.70;;;8.20;59.20;;;;;;5079893;28;20501;-87
2021/12/11 09:16:32;;;;;;;24.33;13.03;;;8.10;59.30;;;;;;5052643;28;20864;-86
2021/12/11 09:19:05;;;;;;;24.37;14.00;;;8.20;59.40;;;;;;5064343;28;20528;-86
2021/12/11 09:21:40;;;;;;;32.37;16.37;;;8.10;59.40;;;;;;5082037;28;20466;-86
2021/12/11 09:24:13;;;;;;;25.03;13.23;;;8.00;59.50;;;;;;5080066;28;20539;-86
2021/12/11 09:26:46;;;;;;;27.47;13.53;;;8.00;59.70;;;;;;5064020;28;20488;-87
2021/12/11 09:29:19;;;;;;;34.33;19.23;;;8.10;59.80;;;;;;5061573;28;20479;-88
2021/12/11 09:32:03;;;;;;;23.20;12.80;;;8.20;59.30;;;;;;5077583;28;21043;-86
2021/12/11 09:34:35;;;;;;;25.70;13.10;;;8.20;58.70;;;;;;5062897;28;20445;-85
2021/12/11 09:37:06;;;;;;;28.77;15.70;;;8.30;59.20;;;;;;5078255;28;20449;-86
2021/12/11 09:39:39;;;;;;;24.70;13.50;;;8.40;59.20;;;;;;5064080;28;20467;-86
2021/12/11 09:42:06;;;;;;;24.93;13.90;;;8.30;58.60;;;;;;5085158;28;20489;-87
2021/12/11 09:44:37;;;;;;;23.73;12.97;;;8.40;58.60;;;;;;5052096;28;20540;-87
2021/12/11 09:47:07;;;;;;;32.10;14.03;;;8.20;58.00;;;;;;5048132;28;20439;-87
2021/12/11 09:49:39;;;;;;;25.17;13.43;;;8.20;58.80;;;;;;5042943;28;20468;-87
2021/12/11 09:52:17;;;;;;;25.57;14.23;;;8.50;58.90;;;;;;5062457;28;20584;-86
2021/12/11 09:54:47;;;;;;;24.93;14.60;;;8.50;58.50;;;;;;5065739;28;20521;-87
2021/12/11 09:57:21;;;;;;;21.47;13.00;;;8.60;58.40;;;;;;5065561;28;20468;-87
2021/12/11 09:59:53;;;;;;;21.57;12.30;;;8.60;58.10;;;;;;5081593;28;20472;-86
2021/12/11 10:02:23;;;;;;;21.93;13.77;;;8.60;57.90;;;;;;5046402;28;20533;-87
2021/12/11 10:05:08;;;;;;;29.73;15.10;;;8.60;58.00;;;;;;5065185;28;20483;-86
2021/12/11 10:07:48;;;;;;;30.90;13.47;;;8.60;57.90;;;;;;5047332;28;20455;-87
2021/12/11 10:10:19;;;;;;;29.57;14.90;;;8.60;58.00;;;;;;5083264;28;20459;-87
2021/12/11 10:12:50;;;;;;;25.30;14.00;;;8.50;58.20;;;;;;5089349;28;20443;-86
2021/12/11 10:15:23;;;;;;;21.10;13.40;;;8.50;58.50;;;;;;5035262;28;20440;-86
2021/12/11 10:17:53;;;;;;;26.93;14.50;;;8.40;58.10;;;;;;5091445;28;20469;-87
2021/12/11 10:20:25;;;;;;;29.53;14.83;;;8.30;58.40;;;;;;5090096;28;20800;-86
2021/12/11 10:22:54;;;;;;;22.20;12.57;;;8.30;58.60;;;;;;5065231;28;20471;-86
2021/12/11 10:25:27;;;;;;;25.60;12.57;;;8.40;58.40;;;;;;5056472;28;20471;-84
2021/12/11 10:27:54;;;;;;;23.90;14.37;;;8.40;58.20;;;;;;5071673;28;20479;-87
2021/12/11 10:30:25;;;;;;;31.70;14.50;;;8.50;58.10;;;;;;5061672;28;20451;-85
2021/12/11 10:32:53;;;;;;;25.33;13.93;;;8.50;57.90;;;;;;5070837;28;20549;-86
2021/12/11 10:35:25;;;;;;;23.97;14.07;;;8.40;58.00;;;;;;5080694;28;20939;-86
2021/12/11 10:37:52;;;;;;;23.80;13.33;;;8.40;58.20;;;;;;5065300;28;21347;-87
2021/12/11 10:40:24;;;;;;;30.20;14.47;;;8.50;57.90;;;;;;5051202;28;20433;-87
2021/12/11 10:42:55;;;;;;;25.50;14.50;;;8.30;57.60;;;;;;5058630;28;20522;-87
2021/12/11 10:45:27;;;;;;;31.23;15.57;;;8.30;57.80;;;;;;5066360;28;20567;-86
2021/12/11 10:48:02;;;;;;;28.40;15.00;;;8.40;58.10;;;;;;5070162;28;20486;-86
2021/12/11 10:50:32;;;;;;;29.83;15.40;;;8.40;58.10;;;;;;5085043;28;20452;-86
2021/12/11 10:53:00;;;;;;;24.97;14.87;;;8.60;57.90;;;;;;5067703;28;20439;-87
2021/12/11 10:55:30;;;;;;;25.40;14.13;;;8.70;57.80;;;;;;5085871;28;20444;-86
2021/12/11 10:58:06;;;;;;;36.07;15.20;;;8.60;57.30;;;;;;5073567;28;20994;-88
2021/12/11 11:00:40;;;;;;;21.57;11.87;;;8.50;57.50;;;;;;5082323;28;20466;-88
2021/12/11 11:03:07;;;;;;;22.27;11.00;;;8.20;56.30;;;;;;5053862;28;20452;-87
2021/12/11 11:05:36;;;;;;;23.57;11.90;;;8.10;56.70;;;;;;5048820;28;21267;-89
2021/12/11 11:08:06;;;;;;;20.10;12.03;;;8.20;57.30;;;;;;5085314;28;20479;-87
2021/12/11 11:10:38;;;;;;;24.23;13.90;;;8.20;57.00;;;;;;5065961;28;20444;-86
2021/12/11 11:13:09;;;;;;;21.50;11.13;;;8.20;57.30;;;;;;5068749;28;20448;-83
2021/12/11 11:15:39;;;;;;;21.33;12.93;;;8.20;57.30;;;;;;5049296;28;20494;-87
2021/12/11 11:18:09;;;;;;;20.67;12.77;;;8.20;57.60;;;;;;5036603;28;20522;-86
2021/12/11 11:20:40;;;;;;;24.20;13.33;;;8.40;57.40;;;;;;5069419;28;20464;-85
2021/12/11 11:23:08;;;;;;;21.63;12.90;;;8.20;56.60;;;;;;5084148;28;20535;-86
2021/12/11 11:25:41;;;;;;;23.77;13.47;;;8.30;57.50;;;;;;5064317;28;20479;-85
2021/12/11 11:28:14;;;;;;;24.63;13.83;;;8.30;57.10;;;;;;5082262;28;20519;-87
2021/12/11 11:30:49;;;;;;;19.17;12.07;;;8.40;57.50;;;;;;5081831;28;20822;-86
2021/12/11 11:33:17;;;;;;;26.97;14.13;;;8.50;57.50;;;;;;5036622;28;20837;-87
2021/12/11 11:35:47;;;;;;;26.30;13.80;;;8.60;56.70;;;;;;5069540;28;20483;-87
2021/12/11 11:38:18;;;;;;;22.63;12.07;;;8.60;56.40;;;;;;5084400;28;20475;-86
2021/12/11 11:40:50;;;;;;;25.70;15.23;;;8.70;56.40;;;;;;5067843;28;20477;-84
2021/12/11 11:43:18;;;;;;;20.30;11.47;;;8.80;56.30;;;;;;5082021;28;20459;-86
2021/12/11 11:45:52;;;;;;;25.90;13.30;;;8.90;56.30;;;;;;5052924;28;20475;-86
2021/12/11 11:48:20;;;;;;;23.07;13.70;;;8.90;56.00;;;;;;5065257;28;20830;-86
2021/12/11 11:50:51;;;;;;;24.40;13.23;;;9.00;56.10;;;;;;5068277;28;20453;-87
2021/12/11 11:53:24;;;;;;;22.70;12.63;;;9.00;55.80;;;;;;5082015;28;20494;-86
2021/12/11 11:55:56;;;;;;;24.43;13.67;;;9.00;55.70;;;;;;5065851;28;20498;-88
2021/12/11 11:58:23;;;;;;;29.57;12.73;;;9.00;55.90;;;;;;5082633;28;20578;-87
2021/12/11 12:00:57;;;;;;;32.67;14.53;;;8.90;56.10;;;;;;5073181;28;20539;-87
2021/12/11 12:03:28;;;;;;;31.20;16.60;;;8.90;55.90;;;;;;5085056;28;20535;-87
2021/12/11 12:05:58;;;;;;;22.67;15.83;;;8.70;55.60;;;;;;5049379;28;20499;-86
2021/12/11 12:08:26;;;;;;;23.73;13.33;;;8.80;56.10;;;;;;5065901;28;20474;-86
2021/12/11 12:10:55;;;;;;;22.03;11.07;;;8.80;56.00;;;;;;5068072;28;20472;-86
2021/12/11 12:13:24;;;;;;;26.80;12.50;;;8.70;55.80;;;;;;5067749;28;20492;-87
2021/12/11 12:15:56;;;;;;;20.37;11.63;;;8.70;56.20;;;;;;5064997;28;21074;-88
2021/12/11 12:18:25;;;;;;;24.33;14.70;;;8.70;56.10;;;;;;5068339;28;20551;-86
2021/12/11 12:20:52;;;;;;;17.30;10.43;;;8.80;56.30;;;;;;5062028;28;20455;-86
2021/12/11 12:23:21;;;;;;;21.50;11.77;;;8.80;56.10;;;;;;5053423;28;20535;-87
2021/12/11 12:25:50;;;;;;;23.33;12.33;;;8.70;55.20;;;;;;5049402;28;20472;-87
2021/12/11 12:28:18;;;;;;;24.43;13.20;;;8.60;55.80;;;;;;5051497;28;20495;-86
2021/12/11 12:30:48;;;;;;;19.70;11.40;;;8.70;56.20;;;;;;5068156;28;20437;-87
2021/12/11 12:33:18;;;;;;;20.23;11.70;;;8.70;55.60;;;;;;5085200;28;20964;-86
2021/12/11 12:35:47;;;;;;;17.93;9.93;;;8.70;56.20;;;;;;5065609;28;21258;-85
2021/12/11 12:38:17;;;;;;;23.63;11.63;;;8.50;54.70;;;;;;5039518;28;20533;-86
2021/12/11 12:40:50;;;;;;;19.70;10.57;;;8.50;55.00;;;;;;5048290;28;20897;-87
2021/12/11 12:43:52;;;;;;;23.20;13.67;;;8.60;55.00;;;;;;5087600;28;20472;-86
2021/12/11 12:46:09;;;;;;;28.13;11.50;;;8.80;55.20;;;;;;5064361;28;20533;-86
2021/12/11 12:48:38;;;;;;;18.53;11.10;;;8.80;55.00;;;;;;5086446;28;20472;-87
2021/12/11 12:51:09;;;;;;;20.83;9.87;;;8.80;55.00;;;;;;5082829;28;20556;-86
2021/12/11 12:53:36;;;;;;;17.90;9.20;;;8.70;54.90;;;;;;5069353;28;20440;-87
2021/12/11 12:56:10;;;;;;;19.60;11.17;;;8.60;55.00;;;;;;5040612;28;20548;-86
2021/12/11 12:58:45;;;;;;;24.43;11.47;;;8.60;55.10;;;;;;5079050;28;20558;-86
2021/12/11 13:01:17;;;;;;;16.73;9.60;;;8.50;55.20;;;;;;5081584;28;21220;-87